MiSS Margy — WCY2616 — position and weather

sailwx.info

Track history (hours):
 
Tides and Currents Weather Stations Pressure Air Temp Water Temp Dewpoint Dewpoint Depression Visibility Wind Speed Wind Dir Waves Ship Positions

MiSS Margy

Owner: SHEPLERS INC, MACKINAW CITY, MI. More information available from US FCC via Universal Licensing System.

Last reported at 2018-Jun-23 17:48 UTC. Time now 2018-Jun-23 18:04 UTC.
Position N 45°51' W 084°37'.

Type: Passenger vessel. MMSI: 367721890.

Date/timePositionNaut miles runAvg speedWind from/ knotsBaromVisibWave heightAir tempDewpointWater temp
2018-Jun-23 17:48N 45°51' W 084°37'3 6.2
2018-Jun-23 17:15N 45°52' W 084°42'3 8.1
2018-Jun-23 16:49N 45°51' W 084°37'5 9.6
2018-Jun-23 16:18N 45°52' W 084°44'533.1
2018-Jun-23 16:10N 45°48' W 084°42'414.2
2018-Jun-23 15:51N 45°51' W 084°37'5 9.0
2018-Jun-23 15:17N 45°47' W 084°42'456.6
2018-Jun-23 15:12N 45°51' W 084°39'4 8.8
2018-Jun-23 14:47N 45°49' W 084°43'0 0.9
2018-Jun-23 14:41N 45°49' W 084°43'2 3.7
2018-Jun-23 14:15N 45°48' W 084°42'520.0
2018-Jun-23 14:01N 45°51' W 084°37'0 6.9
2018-Jun-23 13:59N 45°51' W 084°37'0 1.5
2018-Jun-23 13:52N 45°51' W 084°37'611.9
2018-Jun-23 13:22N 45°47' W 084°43'613.0
2018-Jun-23 12:55N 45°51' W 084°37'4 6.6
2018-Jun-23 12:16N 45°48' W 084°42'2 0.2
2018-Jun-23 03:17N 45°47' W 084°43'613.3
2018-Jun-23 02:50N 45°51' W 084°37'611.0
2018-Jun-23 02:18N 45°47' W 084°43'613.5
2018-Jun-23 01:52N 45°51' W 084°37'5 8.8
2018-Jun-23 01:19N 45°52' W 084°44'582.7
2018-Jun-23 01:15N 45°48' W 084°42'510.8
2018-Jun-23 00:50N 45°51' W 084°37'316.2
2018-Jun-23 00:40N 45°51' W 084°40'512.5
2018-Jun-23 00:18N 45°47' W 084°43'537.7
2018-Jun-23 00:10N 45°51' W 084°39'2 6.0
2018-Jun-22 23:54N 45°51' W 084°37'0 0.4
2018-Jun-22 23:49N 45°51' W 084°37'510.1
2018-Jun-22 23:18N 45°47' W 084°43'4 6.5
2018-Jun-22 22:40N 45°51' W 084°41'3 7.9
2018-Jun-22 22:18N 45°48' W 084°41'326.5
2018-Jun-22 22:11N 45°51' W 084°40'5 2.9
2018-Jun-22 20:24N 45°47' W 084°43'610.7
2018-Jun-22 19:50N 45°51' W 084°37'5 8.2
2018-Jun-22 19:16N 45°48' W 084°42'5 9.6
2018-Jun-22 18:47N 45°51' W 084°37'5 8.8
2018-Jun-22 18:15N 45°48' W 084°42'458.9
2018-Jun-22 18:11N 45°52' W 084°40'3 7.7
2018-Jun-22 17:51N 45°51' W 084°37'583.3
2018-Jun-22 17:47N 45°48' W 084°42'4117.1
2018-Jun-22 17:45N 45°51' W 084°38'1 2.2
2018-Jun-22 17:20N 45°51' W 084°37'562.1
2018-Jun-22 17:15N 45°48' W 084°42'4140.9
2018-Jun-22 17:14N 45°52' W 084°42'4 9.4
2018-Jun-22 16:50N 45°51' W 084°37'0 5.2
2018-Jun-22 16:49N 45°51' W 084°37'4 6.6
2018-Jun-22 16:15N 45°52' W 084°42'41067.7
2018-Jun-22 16:15N 45°48' W 084°42'411.0
2018-Jun-22 15:51N 45°51' W 084°37'224.8
2018-Jun-22 15:45N 45°51' W 084°40'0 0.6
2018-Jun-22 15:21N 45°51' W 084°40'4295.4
2018-Jun-22 15:21N 45°48' W 084°42'512.5
2018-Jun-22 14:57N 45°51' W 084°37'572.1
2018-Jun-22 14:53N 45°49' W 084°43'2 3.8
2018-Jun-22 14:25N 45°47' W 084°43'0 2.7
2018-Jun-22 14:17N 45°47' W 084°43'5268.8
2018-Jun-22 14:16N 45°51' W 084°38'3 8.5
2018-Jun-22 13:52N 45°49' W 084°42'1255.0
2018-Jun-22 13:52N 45°49' W 084°44'564.8
2018-Jun-22 13:47N 45°51' W 084°37'519.6
2018-Jun-22 13:30N 45°48' W 084°44'1249.2
2018-Jun-22 13:30N 45°47' W 084°43'528.1
2018-Jun-22 13:18N 45°52' W 084°43'4 8.7
2018-Jun-22 12:48N 45°51' W 084°37'617.5
2018-Jun-22 12:27N 45°47' W 084°43'546.2
2018-Jun-22 12:20N 45°52' W 084°43'511.6
2018-Jun-22 11:56N 45°51' W 084°37'0 1.3
2018-Jun-22 11:55N 45°51' W 084°37'511.5
2018-Jun-22 11:30N 45°52' W 084°44'6 0.6
2018-Jun-22 02:16N 45°47' W 084°43'612.6
2018-Jun-22 01:48N 45°51' W 084°37'612.5
2018-Jun-22 01:20N 45°47' W 084°43'585.7
2018-Jun-22 01:16N 45°52' W 084°43'410.6
2018-Jun-22 00:52N 45°51' W 084°37'018.4
2018-Jun-22 00:51N 45°51' W 084°37'5 4.1
2018-Jun-21 23:44N 45°48' W 084°42'0 0.5
2018-Jun-21 22:45N 45°48' W 084°41'411.8
2018-Jun-21 22:24N 45°51' W 084°37'324.6
2018-Jun-21 22:16N 45°52' W 084°42'4 8.6
2018-Jun-21 21:47N 45°48' W 084°42'512.1
2018-Jun-21 21:24N 45°51' W 084°37'5 8.8
2018-Jun-21 20:50N 45°48' W 084°42'512.7
2018-Jun-21 20:27N 45°51' W 084°37'5 8.5
2018-Jun-21 19:50N 45°47' W 084°43'510.3
2018-Jun-21 19:19N 45°51' W 084°37'210.3
2018-Jun-21 19:09N 45°51' W 084°39'410.7
2018-Jun-21 18:45N 45°47' W 084°42'511.2
2018-Jun-21 18:19N 45°51' W 084°37'612.2
2018-Jun-21 17:50N 45°47' W 084°43'612.3
2018-Jun-21 17:20N 45°51' W 084°37'511.2
2018-Jun-21 16:51N 45°47' W 084°43'513.2
2018-Jun-21 16:26N 45°51' W 084°37'2 5.9
2018-Jun-21 16:10N 45°51' W 084°39'420.4
2018-Jun-21 15:56N 45°47' W 084°43'511.0
2018-Jun-21 15:28N 45°51' W 084°37'672.3
2018-Jun-21 15:23N 45°47' W 084°43'584.1
2018-Jun-21 15:19N 45°51' W 084°40'2 5.4
2018-Jun-21 14:54N 45°49' W 084°41'3141.7
2018-Jun-21 14:53N 45°51' W 084°37'5164.4
2018-Jun-21 14:51N 45°48' W 084°43'4 7.6
2018-Jun-21 14:16N 45°51' W 084°38'546.7
2018-Jun-21 14:10N 45°49' W 084°44'1 1.9
2018-Jun-21 13:50N 45°49' W 084°43'127.6
2018-Jun-21 13:47N 45°48' W 084°43'511.2
2018-Jun-21 13:19N 45°51' W 084°37'212.7
2018-Jun-21 13:11N 45°51' W 084°39'1 0.7
2018-Jun-21 12:11N 45°51' W 084°40'5 0.5
2018-Jun-21 02:18N 45°47' W 084°43'114.7
2018-Jun-21 02:16N 45°47' W 084°43'619.6
2018-Jun-21 01:58N 45°49' W 084°51'1021.8
2018-Jun-21 01:30N 45°50' W 085°05'1572.5
2018-Jun-21 01:18N 45°52' W 084°43'52331.9
2018-Jun-21 01:18N 45°47' W 084°43'1861.0
2018-Jun-21 01:00N 45°46' W 085°09'23123.2
2018-Jun-21 00:49N 45°51' W 084°37'2168.9
2018-Jun-21 00:31N 45°51' W 085°07'1863.2
2018-Jun-21 00:13N 45°48' W 084°41'835.8
2018-Jun-21 00:00N 45°51' W 084°52'711.7
2018-Jun-20 23:25N 45°47' W 084°43'2 0.9
2018-Jun-20 21:14N 45°48' W 084°41'1 0.5
2018-Jun-20 19:13N 45°49' W 084°40'2 1.8
2018-Jun-20 18:17N 45°48' W 084°42'1 1.1
2018-Jun-20 17:34N 45°47' W 084°43'0 1.1
2018-Jun-20 17:16N 45°48' W 084°43'541.3
2018-Jun-20 17:08N 45°51' W 084°37'0 0.6
2018-Jun-20 16:56N 45°51' W 084°37'4 5.9
2018-Jun-20 16:15N 45°48' W 084°41'4 9.2
2018-Jun-20 15:48N 45°51' W 084°37'616.5
2018-Jun-20 15:26N 45°47' W 084°43'540.9
2018-Jun-20 15:18N 45°51' W 084°39'2 5.6
2018-Jun-20 14:54N 45°49' W 084°41'3995.3
2018-Jun-20 14:54N 45°51' W 084°37'614.8
2018-Jun-20 14:30N 45°47' W 084°43'524.8
2018-Jun-20 14:17N 45°51' W 084°39'2 4.6
2018-Jun-20 13:51N 45°51' W 084°37'4363.2
2018-Jun-20 13:50N 45°49' W 084°42'2 6.0
2018-Jun-20 13:26N 45°47' W 084°43'521.8
2018-Jun-20 13:12N 45°52' W 084°41'310.1
2018-Jun-20 12:55N 45°51' W 084°37'0 0.1
2018-Jun-20 12:50N 45°51' W 084°37'615.3
2018-Jun-20 12:26N 45°47' W 084°43'1 0.1
2018-Jun-20 02:15N 45°47' W 084°43'512.9
2018-Jun-20 01:49N 45°51' W 084°37'5 9.1
2018-Jun-20 01:15N 45°47' W 084°43'5137.6
2018-Jun-20 01:13N 45°52' W 084°42'410.6
2018-Jun-20 00:51N 45°51' W 084°37'215.4
2018-Jun-20 00:43N 45°51' W 084°40'513.0
2018-Jun-20 00:21N 45°47' W 084°43'3 1.5
2018-Jun-19 22:16N 45°49' W 084°40'3 7.1
2018-Jun-19 21:51N 45°51' W 084°37'0 0.1
2018-Jun-19 20:51N 45°51' W 084°37'611.5
2018-Jun-19 20:22N 45°47' W 084°43'510.3
2018-Jun-19 19:50N 45°51' W 084°37'614.1
2018-Jun-19 19:25N 45°47' W 084°43'526.3
2018-Jun-19 19:13N 45°51' W 084°39'1 4.8
2018-Jun-19 18:56N 45°51' W 084°37'5 9.0
2018-Jun-19 18:19N 45°47' W 084°43'536.6
2018-Jun-19 18:11N 45°51' W 084°40'2 8.6
2018-Jun-19 17:56N 45°51' W 084°37'5 6.9
2018-Jun-19 17:17N 45°48' W 084°42'447.1
2018-Jun-19 17:12N 45°51' W 084°40'2 7.1
2018-Jun-19 16:54N 45°51' W 084°37'5 7.3
2018-Jun-19 16:14N 45°48' W 084°42'464.1
2018-Jun-19 16:11N 45°52' W 084°40'519.3
2018-Jun-19 15:55N 45°47' W 084°43'6172.6
2018-Jun-19 15:52N 45°51' W 084°37'113.6
2018-Jun-19 15:46N 45°51' W 084°39'514.3
2018-Jun-19 15:24N 45°47' W 084°43'549.7
2018-Jun-19 15:18N 45°51' W 084°40'214.5
2018-Jun-19 15:10N 45°51' W 084°37'0 0.1
2018-Jun-19 14:55N 45°51' W 084°37'51016.5
2018-Jun-19 14:55N 45°49' W 084°43'0 1.8
2018-Jun-19 14:48N 45°49' W 084°43'1 4.9
2018-Jun-19 14:30N 45°48' W 084°42'0 1.9
2018-Jun-19 14:17N 45°48' W 084°42'2 5.2
2018-Jun-19 13:59N 45°49' W 084°42'455.6
2018-Jun-19 13:55N 45°51' W 084°37'543.0
2018-Jun-19 13:48N 45°49' W 084°43'2 5.0
2018-Jun-19 13:22N 45°47' W 084°43'525.3
2018-Jun-19 13:10N 45°51' W 084°40'2 8.2
2018-Jun-19 12:53N 45°51' W 084°37'210.0
2018-Jun-19 12:43N 45°51' W 084°39'516.7
2018-Jun-19 12:25N 45°47' W 084°43'531.9
2018-Jun-19 12:15N 45°52' W 084°41'3 7.0
2018-Jun-19 11:48N 45°51' W 084°37'5 0.5
2018-Jun-19 02:13N 45°47' W 084°42'0 0.5
2018-Jun-19 01:13N 45°48' W 084°42'512.0
2018-Jun-19 00:49N 45°51' W 084°37'020.6
2018-Jun-19 00:49N 45°51' W 084°37'617.8
2018-Jun-19 00:29N 45°47' W 084°43'526.7
2018-Jun-19 00:17N 45°52' W 084°43'511.5
2018-Jun-18 23:51N 45°51' W 084°37'0 0.1
2018-Jun-18 23:48N 45°51' W 084°37'4 7.1
2018-Jun-18 23:13N 45°48' W 084°42'2 2.2
2018-Jun-18 22:22N 45°47' W 084°43'1 0.4
2018-Jun-18 19:18N 45°48' W 084°42'0 0.5
2018-Jun-18 18:18N 45°48' W 084°42'0 0.0
2018-Jun-18 17:17N 45°48' W 084°42'1 1.6
2018-Jun-18 16:38N 45°47' W 084°43'0 0.9
2018-Jun-18 16:22N 45°47' W 084°43'1 0.9
2018-Jun-18 14:42N 45°49' W 084°44'1 0.1
2018-Jun-18 01:16N 45°48' W 084°42'1 0.3
2018-Jun-17 21:33N 45°47' W 084°43'1 0.9
2018-Jun-17 20:14N 45°48' W 084°42'1 1.6
2018-Jun-17 19:29N 45°47' W 084°43'2 1.7
2018-Jun-17 18:12N 45°48' W 084°41'1 0.4
2018-Jun-17 15:48N 45°48' W 084°43'1 1.0
2018-Jun-17 14:50N 45°49' W 084°43'271.6
2018-Jun-17 14:49N 45°47' W 084°43'216.7
2018-Jun-17 14:43N 45°49' W 084°43'1 4.3
2018-Jun-17 14:24N 45°48' W 084°41'2 2.4
2018-Jun-17 13:37N 45°48' W 084°44'2 4.0
2018-Jun-17 13:13N 45°48' W 084°42'410.2
2018-Jun-17 12:48N 45°51' W 084°37'1 1.8
2018-Jun-17 12:10N 45°51' W 084°38'4 7.4
2018-Jun-17 11:37N 45°48' W 084°43'1 0.1
2018-Jun-17 02:17N 45°48' W 084°42'4 5.6
2018-Jun-17 01:35N 45°46' W 084°37'323.1
2018-Jun-17 01:29N 45°44' W 084°34'6 5.0
2018-Jun-17 00:12N 45°49' W 084°41'0 0.2
2018-Jun-16 23:18N 45°49' W 084°41'3 8.8
2018-Jun-16 22:57N 45°51' W 084°37'610.1
2018-Jun-16 22:21N 45°47' W 084°43'525.9
2018-Jun-16 22:09N 45°51' W 084°39'5 5.3
2018-Jun-16 21:17N 45°47' W 084°43'539.6
2018-Jun-16 21:10N 45°51' W 084°40'2 6.0
2018-Jun-16 20:49N 45°51' W 084°37'215.4
2018-Jun-16 20:42N 45°51' W 084°39'516.6
2018-Jun-16 20:24N 45°47' W 084°43'2 1.7
2018-Jun-16 19:15N 45°48' W 084°41'2 1.6
2018-Jun-16 18:16N 45°47' W 084°43'1 1.0
2018-Jun-16 17:17N 45°48' W 084°42'1 2.0
2018-Jun-16 16:37N 45°47' W 084°43'2 6.9
2018-Jun-16 16:20N 45°48' W 084°41'2 3.8
2018-Jun-16 15:53N 45°47' W 084°43'0 0.4
2018-Jun-16 15:45N 45°47' W 084°43'0 0.9
2018-Jun-16 15:26N 45°47' W 084°43'526.5
2018-Jun-16 15:14N 45°51' W 084°37'521.3
2018-Jun-16 15:00N 45°49' W 084°44'111.5
2018-Jun-16 14:52N 45°49' W 084°42'218.8
2018-Jun-16 14:47N 45°49' W 084°44'5 8.7
2018-Jun-16 14:12N 45°50' W 084°37'52726.4
2018-Jun-16 14:12N 45°48' W 084°42'523.0
2018-Jun-16 13:59N 45°51' W 084°37'525.8
2018-Jun-16 13:48N 45°49' W 084°43'527.3
2018-Jun-16 13:37N 45°51' W 084°37'420.8
2018-Jun-16 13:26N 45°49' W 084°42'331.3
2018-Jun-16 13:21N 45°47' W 084°43'611.8
2018-Jun-16 12:50N 45°51' W 084°37'615.1
2018-Jun-16 12:26N 45°47' W 084°43'6 9.8
2018-Jun-16 11:50N 45°51' W 084°37'213.1
2018-Jun-16 11:42N 45°51' W 084°39'5 0.5
2018-Jun-16 02:15N 45°47' W 084°43'514.6
2018-Jun-16 01:53N 45°51' W 084°37'4 2.7
2018-Jun-16 00:15N 45°48' W 084°42'411.8
2018-Jun-15 23:53N 45°51' W 084°37'3 3.8
2018-Jun-15 23:12N 45°49' W 084°40'3 7.1
2018-Jun-15 22:51N 45°51' W 084°37'611.4
2018-Jun-15 22:21N 45°47' W 084°43'0 0.3
2018-Jun-15 21:19N 45°47' W 084°43'612.9
2018-Jun-15 20:51N 45°51' W 084°37'5 9.7
2018-Jun-15 20:20N 45°48' W 084°42'4 7.2
2018-Jun-15 19:46N 45°51' W 084°39'3 6.4
2018-Jun-15 19:17N 45°52' W 084°43'5221.5
2018-Jun-15 19:16N 45°48' W 084°42'511.3
2018-Jun-15 18:52N 45°51' W 084°37'0 4.6
2018-Jun-15 18:50N 45°51' W 084°37'617.5
2018-Jun-15 18:29N 45°47' W 084°43'531.7
2018-Jun-15 18:19N 45°52' W 084°43'511.6
2018-Jun-15 17:54N 45°51' W 084°37'0 3.5
2018-Jun-15 17:51N 45°51' W 084°37'616.5
2018-Jun-15 17:30N 45°47' W 084°43'529.4
2018-Jun-15 17:19N 45°52' W 084°42'4 9.1
2018-Jun-15 16:55N 45°51' W 084°37'1 6.0
2018-Jun-15 16:46N 45°51' W 084°38'510.7
2018-Jun-15 16:20N 45°47' W 084°43'535.7
2018-Jun-15 16:12N 45°52' W 084°40'2 6.8
2018-Jun-15 15:51N 45°51' W 084°37'212.6
2018-Jun-15 15:43N 45°51' W 084°39'515.3
2018-Jun-15 15:23N 45°47' W 084°43'536.5
2018-Jun-15 15:15N 45°51' W 084°40'2 8.6
2018-Jun-15 15:00N 45°51' W 084°37'0 1.0
2018-Jun-15 14:53N 45°51' W 084°37'612.2
2018-Jun-15 14:24N 45°47' W 084°43'541.5
2018-Jun-15 14:16N 45°51' W 084°39'4 8.1
2018-Jun-15 13:48N 45°49' W 084°43'0 1.1
2018-Jun-15 13:41N 45°49' W 084°43'210.3
2018-Jun-15 13:30N 45°47' W 084°43'529.7
2018-Jun-15 13:18N 45°52' W 084°43'512.4
2018-Jun-15 12:56N 45°51' W 084°37'0 0.4
2018-Jun-15 12:53N 45°51' W 084°37'616.0
2018-Jun-15 12:31N 45°47' W 084°43'631.6
2018-Jun-15 12:20N 45°52' W 084°44'510.8
2018-Jun-15 11:53N 45°51' W 084°37'0 0.4
2018-Jun-15 11:50N 45°51' W 084°37'514.5
2018-Jun-15 11:30N 45°52' W 084°44'6 0.6
2018-Jun-15 02:16N 45°47' W 084°43'0 0.0
2018-Jun-15 01:19N 45°47' W 084°43'563.1
2018-Jun-15 01:14N 45°52' W 084°41'3 8.9
2018-Jun-15 00:50N 45°51' W 084°37'5 9.9
2018-Jun-15 00:17N 45°47' W 084°43'5136.6
2018-Jun-15 00:15N 45°52' W 084°41'3 7.9
2018-Jun-14 23:50N 45°51' W 084°37'510.3
2018-Jun-14 23:19N 45°47' W 084°43'1 0.7
2018-Jun-14 22:19N 45°48' W 084°42'424.4
2018-Jun-14 22:09N 45°51' W 084°39'2 5.1
2018-Jun-14 21:49N 45°51' W 084°37'5 9.4
2018-Jun-14 21:18N 45°48' W 084°42'1 1.1
2018-Jun-14 20:18N 45°48' W 084°41'4 9.0
2018-Jun-14 19:54N 45°51' W 084°37'5 7.9
2018-Jun-14 19:19N 45°48' W 084°42'510.3
2018-Jun-14 18:52N 45°51' W 084°37'613.8
2018-Jun-14 18:26N 45°47' W 084°43'0 0.1
2018-Jun-14 17:51N 45°47' W 084°43'6110.8
2018-Jun-14 17:48N 45°51' W 084°37'0 0.2
2018-Jun-14 17:21N 45°51' W 084°37'2 9.9
2018-Jun-14 17:09N 45°51' W 084°40'411.2
2018-Jun-14 16:48N 45°48' W 084°42'1 1.5
2018-Jun-14 16:24N 45°48' W 084°41'0 0.4
2018-Jun-14 15:24N 45°48' W 084°42'427.1
2018-Jun-14 15:15N 45°51' W 084°39'1 4.1
2018-Jun-14 14:59N 45°51' W 084°37'530.7
2018-Jun-14 14:50N 45°49' W 084°43'121.9
2018-Jun-14 14:46N 45°48' W 084°42'1 4.3
2018-Jun-14 14:26N 45°47' W 084°43'2 6.1
2018-Jun-14 14:03N 45°49' W 084°43'118.0
2018-Jun-14 14:00N 45°49' W 084°44'562.0
2018-Jun-14 13:55N 45°51' W 084°37'543.2
2018-Jun-14 13:49N 45°49' W 084°43'2 2.8
2018-Jun-14 13:15N 45°48' W 084°42'410.6
2018-Jun-14 12:49N 45°51' W 084°37'112.4
2018-Jun-14 12:45N 45°51' W 084°38'516.0
2018-Jun-14 12:25N 45°47' W 084°43'544.4
2018-Jun-14 12:18N 45°52' W 084°42'4 7.9
2018-Jun-14 11:51N 45°51' W 084°37'0 1.2
2018-Jun-14 11:48N 45°51' W 084°37'6 0.6
2018-Jun-14 02:22N 45°47' W 084°43'616.3
2018-Jun-14 02:00N 45°51' W 084°37'5 7.5
2018-Jun-14 01:19N 45°47' W 084°43'59047.5
2018-Jun-14 01:19N 45°52' W 084°43'510.8
2018-Jun-14 00:52N 45°51' W 084°37'0 2.9
2018-Jun-14 00:50N 45°51' W 084°37'510.0
2018-Jun-14 00:20N 45°52' W 084°44'5381.4
2018-Jun-14 00:19N 45°47' W 084°43'5 8.9
2018-Jun-13 23:46N 45°51' W 084°39'4 8.5
2018-Jun-13 23:17N 45°48' W 084°42'443.8
2018-Jun-13 23:11N 45°51' W 084°39'1 3.8
2018-Jun-13 22:51N 45°51' W 084°37'110.8
2018-Jun-13 22:46N 45°51' W 084°38'516.6
2018-Jun-13 22:27N 45°47' W 084°43'523.7
2018-Jun-13 22:13N 45°52' W 084°42'4 9.3
2018-Jun-13 21:50N 45°51' W 084°37'122.4
2018-Jun-13 21:48N 45°51' W 084°38'5 9.1
2018-Jun-13 21:16N 45°47' W 084°43'545.7
2018-Jun-13 21:10N 45°51' W 084°40'2 7.0
2018-Jun-13 20:50N 45°51' W 084°37'612.2
2018-Jun-13 20:20N 45°47' W 084°43'532.3
2018-Jun-13 20:10N 45°51' W 084°40'2 6.7
2018-Jun-13 19:52N 45°51' W 084°37'610.4
2018-Jun-13 19:17N 45°47' W 084°43'613.8
2018-Jun-13 18:52N 45°51' W 084°37'5 9.5
2018-Jun-13 18:17N 45°47' W 084°43'534.7
2018-Jun-13 18:09N 45°51' W 084°40'2 7.2
2018-Jun-13 17:50N 45°51' W 084°37'  
Track history (hours):
 
Tides and Currents Weather Stations Pressure Air Temp Water Temp Dewpoint Dewpoint Depression Visibility Wind Speed Wind Dir Waves Ship Positions

MiSS Margy

Owner: SHEPLERS INC, MACKINAW CITY, MI. More information available from US FCC via Universal Licensing System.

Last reported at 2018-Jun-23 17:48 UTC. Time now 2018-Jun-23 18:04 UTC.
Position N 45°51' W 084°37'.

Type: Passenger vessel. MMSI: 367721890.

Date/timePositionNaut miles runAvg speedWind from/ knotsBaromVisibWave heightAir tempDewpointWater temp
2018-Jun-23 17:48N 45°51' W 084°37'3 6.2
2018-Jun-23 17:15N 45°52' W 084°42'3 8.1
2018-Jun-23 16:49N 45°51' W 084°37'5 9.6
2018-Jun-23 16:18N 45°52' W 084°44'533.1
2018-Jun-23 16:10N 45°48' W 084°42'414.2
2018-Jun-23 15:51N 45°51' W 084°37'5 9.0
2018-Jun-23 15:17N 45°47' W 084°42'456.6
2018-Jun-23 15:12N 45°51' W 084°39'4 8.8
2018-Jun-23 14:47N 45°49' W 084°43'0 0.9
2018-Jun-23 14:41N 45°49' W 084°43'2 3.7
2018-Jun-23 14:15N 45°48' W 084°42'520.0
2018-Jun-23 14:01N 45°51' W 084°37'0 6.9
2018-Jun-23 13:59N 45°51' W 084°37'0 1.5
2018-Jun-23 13:52N 45°51' W 084°37'611.9
2018-Jun-23 13:22N 45°47' W 084°43'613.0
2018-Jun-23 12:55N 45°51' W 084°37'4 6.6
2018-Jun-23 12:16N 45°48' W 084°42'2 0.2
2018-Jun-23 03:17N 45°47' W 084°43'613.3
2018-Jun-23 02:50N 45°51' W 084°37'611.0
2018-Jun-23 02:18N 45°47' W 084°43'613.5
2018-Jun-23 01:52N 45°51' W 084°37'5 8.8
2018-Jun-23 01:19N 45°52' W 084°44'582.7
2018-Jun-23 01:15N 45°48' W 084°42'510.8
2018-Jun-23 00:50N 45°51' W 084°37'316.2
2018-Jun-23 00:40N 45°51' W 084°40'512.5
2018-Jun-23 00:18N 45°47' W 084°43'537.7
2018-Jun-23 00:10N 45°51' W 084°39'2 6.0
2018-Jun-22 23:54N 45°51' W 084°37'0 0.4
2018-Jun-22 23:49N 45°51' W 084°37'510.1
2018-Jun-22 23:18N 45°47' W 084°43'4 6.5
2018-Jun-22 22:40N 45°51' W 084°41'3 7.9
2018-Jun-22 22:18N 45°48' W 084°41'326.5
2018-Jun-22 22:11N 45°51' W 084°40'5 2.9
2018-Jun-22 20:24N 45°47' W 084°43'610.7
2018-Jun-22 19:50N 45°51' W 084°37'5 8.2
2018-Jun-22 19:16N 45°48' W 084°42'5 9.6
2018-Jun-22 18:47N 45°51' W 084°37'5 8.8
2018-Jun-22 18:15N 45°48' W 084°42'458.9
2018-Jun-22 18:11N 45°52' W 084°40'3 7.7
2018-Jun-22 17:51N 45°51' W 084°37'583.3
2018-Jun-22 17:47N 45°48' W 084°42'4117.1
2018-Jun-22 17:45N 45°51' W 084°38'1 2.2
2018-Jun-22 17:20N 45°51' W 084°37'562.1
2018-Jun-22 17:15N 45°48' W 084°42'4140.9
2018-Jun-22 17:14N 45°52' W 084°42'4 9.4
2018-Jun-22 16:50N 45°51' W 084°37'0 5.2
2018-Jun-22 16:49N 45°51' W 084°37'4 6.6
2018-Jun-22 16:15N 45°52' W 084°42'41067.7
2018-Jun-22 16:15N 45°48' W 084°42'411.0
2018-Jun-22 15:51N 45°51' W 084°37'224.8
2018-Jun-22 15:45N 45°51' W 084°40'0 0.6
2018-Jun-22 15:21N 45°51' W 084°40'4295.4
2018-Jun-22 15:21N 45°48' W 084°42'512.5
2018-Jun-22 14:57N 45°51' W 084°37'572.1
2018-Jun-22 14:53N 45°49' W 084°43'2 3.8
2018-Jun-22 14:25N 45°47' W 084°43'0 2.7
2018-Jun-22 14:17N 45°47' W 084°43'5268.8
2018-Jun-22 14:16N 45°51' W 084°38'3 8.5
2018-Jun-22 13:52N 45°49' W 084°42'1255.0
2018-Jun-22 13:52N 45°49' W 084°44'564.8
2018-Jun-22 13:47N 45°51' W 084°37'519.6
2018-Jun-22 13:30N 45°48' W 084°44'1249.2
2018-Jun-22 13:30N 45°47' W 084°43'528.1
2018-Jun-22 13:18N 45°52' W 084°43'4 8.7
2018-Jun-22 12:48N 45°51' W 084°37'617.5
2018-Jun-22 12:27N 45°47' W 084°43'546.2
2018-Jun-22 12:20N 45°52' W 084°43'511.6
2018-Jun-22 11:56N 45°51' W 084°37'0 1.3
2018-Jun-22 11:55N 45°51' W 084°37'511.5
2018-Jun-22 11:30N 45°52' W 084°44'6 0.6
2018-Jun-22 02:16N 45°47' W 084°43'612.6
2018-Jun-22 01:48N 45°51' W 084°37'612.5
2018-Jun-22 01:20N 45°47' W 084°43'585.7
2018-Jun-22 01:16N 45°52' W 084°43'410.6
2018-Jun-22 00:52N 45°51' W 084°37'018.4
2018-Jun-22 00:51N 45°51' W 084°37'5 4.1
2018-Jun-21 23:44N 45°48' W 084°42'0 0.5
2018-Jun-21 22:45N 45°48' W 084°41'411.8
2018-Jun-21 22:24N 45°51' W 084°37'324.6
2018-Jun-21 22:16N 45°52' W 084°42'4 8.6
2018-Jun-21 21:47N 45°48' W 084°42'512.1
2018-Jun-21 21:24N 45°51' W 084°37'5 8.8
2018-Jun-21 20:50N 45°48' W 084°42'512.7
2018-Jun-21 20:27N 45°51' W 084°37'5 8.5
2018-Jun-21 19:50N 45°47' W 084°43'510.3
2018-Jun-21 19:19N 45°51' W 084°37'210.3
2018-Jun-21 19:09N 45°51' W 084°39'410.7
2018-Jun-21 18:45N 45°47' W 084°42'511.2
2018-Jun-21 18:19N 45°51' W 084°37'612.2
2018-Jun-21 17:50N 45°47' W 084°43'612.3
2018-Jun-21 17:20N 45°51' W 084°37'511.2
2018-Jun-21 16:51N 45°47' W 084°43'513.2
2018-Jun-21 16:26N 45°51' W 084°37'2 5.9
2018-Jun-21 16:10N 45°51' W 084°39'420.4
2018-Jun-21 15:56N 45°47' W 084°43'511.0
2018-Jun-21 15:28N 45°51' W 084°37'672.3
2018-Jun-21 15:23N 45°47' W 084°43'584.1
2018-Jun-21 15:19N 45°51' W 084°40'2 5.4
2018-Jun-21 14:54N 45°49' W 084°41'3141.7
2018-Jun-21 14:53N 45°51' W 084°37'5164.4
2018-Jun-21 14:51N 45°48' W 084°43'4 7.6
2018-Jun-21 14:16N 45°51' W 084°38'546.7
2018-Jun-21 14:10N 45°49' W 084°44'1 1.9
2018-Jun-21 13:50N 45°49' W 084°43'127.6
2018-Jun-21 13:47N 45°48' W 084°43'511.2
2018-Jun-21 13:19N 45°51' W 084°37'212.7
2018-Jun-21 13:11N 45°51' W 084°39'1 0.7
2018-Jun-21 12:11N 45°51' W 084°40'5 0.5
2018-Jun-21 02:18N 45°47' W 084°43'114.7
2018-Jun-21 02:16N 45°47' W 084°43'619.6
2018-Jun-21 01:58N 45°49' W 084°51'1021.8
2018-Jun-21 01:30N 45°50' W 085°05'1572.5
2018-Jun-21 01:18N 45°52' W 084°43'52331.9
2018-Jun-21 01:18N 45°47' W 084°43'1861.0
2018-Jun-21 01:00N 45°46' W 085°09'23123.2
2018-Jun-21 00:49N 45°51' W 084°37'2168.9
2018-Jun-21 00:31N 45°51' W 085°07'1863.2
2018-Jun-21 00:13N 45°48' W 084°41'835.8
2018-Jun-21 00:00N 45°51' W 084°52'711.7
2018-Jun-20 23:25N 45°47' W 084°43'2 0.9
2018-Jun-20 21:14N 45°48' W 084°41'1 0.5
2018-Jun-20 19:13N 45°49' W 084°40'2 1.8
2018-Jun-20 18:17N 45°48' W 084°42'1 1.1
2018-Jun-20 17:34N 45°47' W 084°43'0 1.1
2018-Jun-20 17:16N 45°48' W 084°43'541.3
2018-Jun-20 17:08N 45°51' W 084°37'0 0.6
2018-Jun-20 16:56N 45°51' W 084°37'4 5.9
2018-Jun-20 16:15N 45°48' W 084°41'4 9.2
2018-Jun-20 15:48N 45°51' W 084°37'616.5
2018-Jun-20 15:26N 45°47' W 084°43'540.9
2018-Jun-20 15:18N 45°51' W 084°39'2 5.6
2018-Jun-20 14:54N 45°49' W 084°41'3995.3
2018-Jun-20 14:54N 45°51' W 084°37'614.8
2018-Jun-20 14:30N 45°47' W 084°43'524.8
2018-Jun-20 14:17N 45°51' W 084°39'2 4.6
2018-Jun-20 13:51N 45°51' W 084°37'4363.2
2018-Jun-20 13:50N 45°49' W 084°42'2 6.0
2018-Jun-20 13:26N 45°47' W 084°43'521.8
2018-Jun-20 13:12N 45°52' W 084°41'310.1
2018-Jun-20 12:55N 45°51' W 084°37'0 0.1
2018-Jun-20 12:50N 45°51' W 084°37'615.3
2018-Jun-20 12:26N 45°47' W 084°43'1 0.1
2018-Jun-20 02:15N 45°47' W 084°43'512.9
2018-Jun-20 01:49N 45°51' W 084°37'5 9.1
2018-Jun-20 01:15N 45°47' W 084°43'5137.6
2018-Jun-20 01:13N 45°52' W 084°42'410.6
2018-Jun-20 00:51N 45°51' W 084°37'215.4
2018-Jun-20 00:43N 45°51' W 084°40'513.0
2018-Jun-20 00:21N 45°47' W 084°43'3 1.5
2018-Jun-19 22:16N 45°49' W 084°40'3 7.1
2018-Jun-19 21:51N 45°51' W 084°37'0 0.1
2018-Jun-19 20:51N 45°51' W 084°37'611.5
2018-Jun-19 20:22N 45°47' W 084°43'510.3
2018-Jun-19 19:50N 45°51' W 084°37'614.1
2018-Jun-19 19:25N 45°47' W 084°43'526.3
2018-Jun-19 19:13N 45°51' W 084°39'1 4.8
2018-Jun-19 18:56N 45°51' W 084°37'5 9.0
2018-Jun-19 18:19N 45°47' W 084°43'536.6
2018-Jun-19 18:11N 45°51' W 084°40'2 8.6
2018-Jun-19 17:56N 45°51' W 084°37'5 6.9
2018-Jun-19 17:17N 45°48' W 084°42'447.1
2018-Jun-19 17:12N 45°51' W 084°40'2 7.1
2018-Jun-19 16:54N 45°51' W 084°37'5 7.3
2018-Jun-19 16:14N 45°48' W 084°42'464.1
2018-Jun-19 16:11N 45°52' W 084°40'519.3
2018-Jun-19 15:55N 45°47' W 084°43'6172.6
2018-Jun-19 15:52N 45°51' W 084°37'113.6
2018-Jun-19 15:46N 45°51' W 084°39'514.3
2018-Jun-19 15:24N 45°47' W 084°43'549.7
2018-Jun-19 15:18N 45°51' W 084°40'214.5
2018-Jun-19 15:10N 45°51' W 084°37'0 0.1
2018-Jun-19 14:55N 45°51' W 084°37'51016.5
2018-Jun-19 14:55N 45°49' W 084°43'0 1.8
2018-Jun-19 14:48N 45°49' W 084°43'1 4.9
2018-Jun-19 14:30N 45°48' W 084°42'0 1.9
2018-Jun-19 14:17N 45°48' W 084°42'2 5.2
2018-Jun-19 13:59N 45°49' W 084°42'455.6
2018-Jun-19 13:55N 45°51' W 084°37'543.0
2018-Jun-19 13:48N 45°49' W 084°43'2 5.0
2018-Jun-19 13:22N 45°47' W 084°43'525.3
2018-Jun-19 13:10N 45°51' W 084°40'2 8.2
2018-Jun-19 12:53N 45°51' W 084°37'210.0
2018-Jun-19 12:43N 45°51' W 084°39'516.7
2018-Jun-19 12:25N 45°47' W 084°43'531.9
2018-Jun-19 12:15N 45°52' W 084°41'3 7.0
2018-Jun-19 11:48N 45°51' W 084°37'5 0.5
2018-Jun-19 02:13N 45°47' W 084°42'0 0.5
2018-Jun-19 01:13N 45°48' W 084°42'512.0
2018-Jun-19 00:49N 45°51' W 084°37'020.6
2018-Jun-19 00:49N 45°51' W 084°37'617.8
2018-Jun-19 00:29N 45°47' W 084°43'526.7
2018-Jun-19 00:17N 45°52' W 084°43'511.5
2018-Jun-18 23:51N 45°51' W 084°37'0 0.1
2018-Jun-18 23:48N 45°51' W 084°37'4 7.1
2018-Jun-18 23:13N 45°48' W 084°42'2 2.2
2018-Jun-18 22:22N 45°47' W 084°43'1 0.4
2018-Jun-18 19:18N 45°48' W 084°42'0 0.5
2018-Jun-18 18:18N 45°48' W 084°42'0 0.0
2018-Jun-18 17:17N 45°48' W 084°42'1 1.6
2018-Jun-18 16:38N 45°47' W 084°43'0 0.9
2018-Jun-18 16:22N 45°47' W 084°43'1 0.9
2018-Jun-18 14:42N 45°49' W 084°44'1 0.1
2018-Jun-18 01:16N 45°48' W 084°42'1 0.3
2018-Jun-17 21:33N 45°47' W 084°43'1 0.9
2018-Jun-17 20:14N 45°48' W 084°42'1 1.6
2018-Jun-17 19:29N 45°47' W 084°43'2 1.7
2018-Jun-17 18:12N 45°48' W 084°41'1 0.4
2018-Jun-17 15:48N 45°48' W 084°43'1 1.0
2018-Jun-17 14:50N 45°49' W 084°43'271.6
2018-Jun-17 14:49N 45°47' W 084°43'216.7
2018-Jun-17 14:43N 45°49' W 084°43'1 4.3
2018-Jun-17 14:24N 45°48' W 084°41'2 2.4
2018-Jun-17 13:37N 45°48' W 084°44'2 4.0
2018-Jun-17 13:13N 45°48' W 084°42'410.2
2018-Jun-17 12:48N 45°51' W 084°37'1 1.8
2018-Jun-17 12:10N 45°51' W 084°38'4 7.4
2018-Jun-17 11:37N 45°48' W 084°43'1 0.1
2018-Jun-17 02:17N 45°48' W 084°42'4 5.6
2018-Jun-17 01:35N 45°46' W 084°37'323.1
2018-Jun-17 01:29N 45°44' W 084°34'6 5.0
2018-Jun-17 00:12N 45°49' W 084°41'0 0.2
2018-Jun-16 23:18N 45°49' W 084°41'3 8.8
2018-Jun-16 22:57N 45°51' W 084°37'610.1
2018-Jun-16 22:21N 45°47' W 084°43'525.9
2018-Jun-16 22:09N 45°51' W 084°39'5 5.3
2018-Jun-16 21:17N 45°47' W 084°43'539.6
2018-Jun-16 21:10N 45°51' W 084°40'2 6.0
2018-Jun-16 20:49N 45°51' W 084°37'215.4
2018-Jun-16 20:42N 45°51' W 084°39'516.6
2018-Jun-16 20:24N 45°47' W 084°43'2 1.7
2018-Jun-16 19:15N 45°48' W 084°41'2 1.6
2018-Jun-16 18:16N 45°47' W 084°43'1 1.0
2018-Jun-16 17:17N 45°48' W 084°42'1 2.0
2018-Jun-16 16:37N 45°47' W 084°43'2 6.9
2018-Jun-16 16:20N 45°48' W 084°41'2 3.8
2018-Jun-16 15:53N 45°47' W 084°43'0 0.4
2018-Jun-16 15:45N 45°47' W 084°43'0 0.9
2018-Jun-16 15:26N 45°47' W 084°43'526.5
2018-Jun-16 15:14N 45°51' W 084°37'521.3
2018-Jun-16 15:00N 45°49' W 084°44'111.5
2018-Jun-16 14:52N 45°49' W 084°42'218.8
2018-Jun-16 14:47N 45°49' W 084°44'5 8.7
2018-Jun-16 14:12N 45°50' W 084°37'52726.4
2018-Jun-16 14:12N 45°48' W 084°42'523.0
2018-Jun-16 13:59N 45°51' W 084°37'525.8
2018-Jun-16 13:48N 45°49' W 084°43'527.3
2018-Jun-16 13:37N 45°51' W 084°37'420.8
2018-Jun-16 13:26N 45°49' W 084°42'331.3
2018-Jun-16 13:21N 45°47' W 084°43'611.8
2018-Jun-16 12:50N 45°51' W 084°37'615.1
2018-Jun-16 12:26N 45°47' W 084°43'6 9.8
2018-Jun-16 11:50N 45°51' W 084°37'213.1
2018-Jun-16 11:42N 45°51' W 084°39'5 0.5
2018-Jun-16 02:15N 45°47' W 084°43'514.6
2018-Jun-16 01:53N 45°51' W 084°37'4 2.7
2018-Jun-16 00:15N 45°48' W 084°42'411.8
2018-Jun-15 23:53N 45°51' W 084°37'3 3.8
2018-Jun-15 23:12N 45°49' W 084°40'3 7.1
2018-Jun-15 22:51N 45°51' W 084°37'611.4
2018-Jun-15 22:21N 45°47' W 084°43'0 0.3
2018-Jun-15 21:19N 45°47' W 084°43'612.9
2018-Jun-15 20:51N 45°51' W 084°37'5 9.7
2018-Jun-15 20:20N 45°48' W 084°42'4 7.2
2018-Jun-15 19:46N 45°51' W 084°39'3 6.4
2018-Jun-15 19:17N 45°52' W 084°43'5221.5
2018-Jun-15 19:16N 45°48' W 084°42'511.3
2018-Jun-15 18:52N 45°51' W 084°37'0 4.6
2018-Jun-15 18:50N 45°51' W 084°37'617.5
2018-Jun-15 18:29N 45°47' W 084°43'531.7
2018-Jun-15 18:19N 45°52' W 084°43'511.6
2018-Jun-15 17:54N 45°51' W 084°37'0 3.5
2018-Jun-15 17:51N 45°51' W 084°37'616.5
2018-Jun-15 17:30N 45°47' W 084°43'529.4
2018-Jun-15 17:19N 45°52' W 084°42'4 9.1
2018-Jun-15 16:55N 45°51' W 084°37'1 6.0
2018-Jun-15 16:46N 45°51' W 084°38'510.7
2018-Jun-15 16:20N 45°47' W 084°43'535.7
2018-Jun-15 16:12N 45°52' W 084°40'2 6.8
2018-Jun-15 15:51N 45°51' W 084°37'212.6
2018-Jun-15 15:43N 45°51' W 084°39'515.3
2018-Jun-15 15:23N 45°47' W 084°43'536.5
2018-Jun-15 15:15N 45°51' W 084°40'2 8.6
2018-Jun-15 15:00N 45°51' W 084°37'0 1.0
2018-Jun-15 14:53N 45°51' W 084°37'612.2
2018-Jun-15 14:24N 45°47' W 084°43'541.5
2018-Jun-15 14:16N 45°51' W 084°39'4 8.1
2018-Jun-15 13:48N 45°49' W 084°43'0 1.1
2018-Jun-15 13:41N 45°49' W 084°43'210.3
2018-Jun-15 13:30N 45°47' W 084°43'529.7
2018-Jun-15 13:18N 45°52' W 084°43'512.4
2018-Jun-15 12:56N 45°51' W 084°37'0 0.4
2018-Jun-15 12:53N 45°51' W 084°37'616.0
2018-Jun-15 12:31N 45°47' W 084°43'631.6
2018-Jun-15 12:20N 45°52' W 084°44'510.8
2018-Jun-15 11:53N 45°51' W 084°37'0 0.4
2018-Jun-15 11:50N 45°51' W 084°37'514.5
2018-Jun-15 11:30N 45°52' W 084°44'6 0.6
2018-Jun-15 02:16N 45°47' W 084°43'0 0.0
2018-Jun-15 01:19N 45°47' W 084°43'563.1
2018-Jun-15 01:14N 45°52' W 084°41'3 8.9
2018-Jun-15 00:50N 45°51' W 084°37'5 9.9
2018-Jun-15 00:17N 45°47' W 084°43'5136.6
2018-Jun-15 00:15N 45°52' W 084°41'3 7.9
2018-Jun-14 23:50N 45°51' W 084°37'510.3
2018-Jun-14 23:19N 45°47' W 084°43'1 0.7
2018-Jun-14 22:19N 45°48' W 084°42'424.4
2018-Jun-14 22:09N 45°51' W 084°39'2 5.1
2018-Jun-14 21:49N 45°51' W 084°37'5 9.4
2018-Jun-14 21:18N 45°48' W 084°42'1 1.1
2018-Jun-14 20:18N 45°48' W 084°41'4 9.0
2018-Jun-14 19:54N 45°51' W 084°37'5 7.9
2018-Jun-14 19:19N 45°48' W 084°42'510.3
2018-Jun-14 18:52N 45°51' W 084°37'613.8
2018-Jun-14 18:26N 45°47' W 084°43'0 0.1
2018-Jun-14 17:51N 45°47' W 084°43'6110.8
2018-Jun-14 17:48N 45°51' W 084°37'0 0.2
2018-Jun-14 17:21N 45°51' W 084°37'2 9.9
2018-Jun-14 17:09N 45°51' W 084°40'411.2
2018-Jun-14 16:48N 45°48' W 084°42'1 1.5
2018-Jun-14 16:24N 45°48' W 084°41'0 0.4
2018-Jun-14 15:24N 45°48' W 084°42'427.1
2018-Jun-14 15:15N 45°51' W 084°39'1 4.1
2018-Jun-14 14:59N 45°51' W 084°37'530.7
2018-Jun-14 14:50N 45°49' W 084°43'121.9
2018-Jun-14 14:46N 45°48' W 084°42'1 4.3
2018-Jun-14 14:26N 45°47' W 084°43'2 6.1
2018-Jun-14 14:03N 45°49' W 084°43'118.0
2018-Jun-14 14:00N 45°49' W 084°44'562.0
2018-Jun-14 13:55N 45°51' W 084°37'543.2
2018-Jun-14 13:49N 45°49' W 084°43'2 2.8
2018-Jun-14 13:15N 45°48' W 084°42'410.6
2018-Jun-14 12:49N 45°51' W 084°37'112.4
2018-Jun-14 12:45N 45°51' W 084°38'516.0
2018-Jun-14 12:25N 45°47' W 084°43'544.4
2018-Jun-14 12:18N 45°52' W 084°42'4 7.9
2018-Jun-14 11:51N 45°51' W 084°37'0 1.2
2018-Jun-14 11:48N 45°51' W 084°37'6 0.6
2018-Jun-14 02:22N 45°47' W 084°43'616.3
2018-Jun-14 02:00N 45°51' W 084°37'5 7.5
2018-Jun-14 01:19N 45°47' W 084°43'59047.5
2018-Jun-14 01:19N 45°52' W 084°43'510.8
2018-Jun-14 00:52N 45°51' W 084°37'0 2.9
2018-Jun-14 00:50N 45°51' W 084°37'510.0
2018-Jun-14 00:20N 45°52' W 084°44'5381.4
2018-Jun-14 00:19N 45°47' W 084°43'5 8.9
2018-Jun-13 23:46N 45°51' W 084°39'4 8.5
2018-Jun-13 23:17N 45°48' W 084°42'443.8
2018-Jun-13 23:11N 45°51' W 084°39'1 3.8
2018-Jun-13 22:51N 45°51' W 084°37'110.8
2018-Jun-13 22:46N 45°51' W 084°38'516.6
2018-Jun-13 22:27N 45°47' W 084°43'523.7
2018-Jun-13 22:13N 45°52' W 084°42'4 9.3
2018-Jun-13 21:50N 45°51' W 084°37'122.4
2018-Jun-13 21:48N 45°51' W 084°38'5 9.1
2018-Jun-13 21:16N 45°47' W 084°43'545.7
2018-Jun-13 21:10N 45°51' W 084°40'2 7.0
2018-Jun-13 20:50N 45°51' W 084°37'612.2
2018-Jun-13 20:20N 45°47' W 084°43'532.3
2018-Jun-13 20:10N 45°51' W 084°40'2 6.7
2018-Jun-13 19:52N 45°51' W 084°37'610.4
2018-Jun-13 19:17N 45°47' W 084°43'613.8
2018-Jun-13 18:52N 45°51' W 084°37'5 9.5
2018-Jun-13 18:17N 45°47' W 084°43'534.7
2018-Jun-13 18:09N 45°51' W 084°40'2 7.2
2018-Jun-13 17:50N 45°51' W 084°37'  

Dump ship's entire track history